Amedorf, Germany

7:13 AM CEST on June 22, 2018 (GMT +0200)
EasyWeather-WIFICB6F | | Change Station

Elev 121 ft 52.55 °N, 9.51 °E | Updated 57 seconds ago

Rain
Rain
49.6 °F
Feels Like 48 °F
N
4.7
Wind Variable Wind from NNW
Gusts 5.8 mph

Today
High -- | Low -- °F
--% Chance of Precip.
Yesterday
High -- | Low -- °F
Precip. -- in
Pressure 30.04 in
Visibility 6.2 miles
Clouds Scattered Clouds 1400 ft
Mostly Cloudy 2000 ft
Windchill 48 °F
Dew Point 48 °F
Humidity 94%
Rainfall 0.04 in
Snow Depth Not available.
4:58 AM 9:49 PM
Waxing Gibbous, 69% visible
METAR EDDV 220450Z 27011KT 240V300 9999 -SHRA SCT014 BKN020 10/08 Q1017 TEMPO SHRA BKN008CB
Pressure 30.04 in
Visibility 6.2 miles
Clouds Scattered Clouds 1400 ft
Mostly Cloudy 2000 ft
Windchill 48 °F
Dew Point 48 °F
Humidity 94%
Rainfall 0.04 in
Snow Depth Not available.
4:58 AM 9:49 PM
Waxing Gibbous, 69% visible
METAR EDDV 220450Z 27011KT 240V300 9999 -SHRA SCT014 BKN020 10/08 Q1017 TEMPO SHRA BKN008CB

Get Severe Weather Alerts

Thanks for signing up!

Be on the lookout for a verification email in your inbox.

You'll start receiving the daily forecast at 6 AM.

×

10-Day Weather Forecast

×

Almanac

Astronomy

Jun. 22, 2018 Rise Set
Actual Time
Civil Twilight
Nautical Twilight
Astronomical Twilight
Moon
Length of Visible Light
Length of Day
Tomorrow will be .
, % of the Moon is Illuminated

Today's Extremes

Country Highs Country Lows

Community

WunderPhotos

Category 6

Welcome to Category 6. This is the collective home for Weather Underground's featured writeups by Dr. Jeff Masters (right), Bob Henson (left), Chris Burt, and other regular contributors.

Nearby

Air Quality

  Air Quality AQ Index Pollutant
Not available.

Snow Depth

Station Depth Elevation

Earthquake Activity

City Distance Mag. Time & Date
Minimum magnitude displayed is 2.5.

Coastal Water Temperatures

Place Temperature

Stations

Nearby Weather Stations

Station Location Temp. Windchill Dew Point Humidity Wind Precip. Elev Updated Type